createdAt,value
2022-10-11T00:01:15.912Z,5.90
2022-10-11T00:03:42.228Z,7.00
2022-10-11T00:06:09.347Z,5.53
2022-10-11T00:08:36.117Z,5.80
2022-10-11T00:11:06.249Z,5.47
2022-10-11T00:13:33.064Z,6.03
2022-10-11T00:15:59.700Z,6.03
2022-10-11T00:18:26.299Z,5.60
2022-10-11T00:21:07.693Z,5.40
2022-10-11T00:23:34.218Z,5.77
2022-10-11T00:26:03.301Z,5.00
2022-10-11T00:28:30.465Z,5.40
2022-10-11T00:30:57.189Z,5.57
2022-10-11T00:33:23.659Z,5.67
2022-10-11T00:35:50.082Z,5.90
2022-10-11T00:38:16.908Z,6.30
2022-10-11T00:40:43.813Z,5.90
2022-10-11T00:43:19.108Z,6.03
2022-10-11T00:45:51.129Z,5.30
2022-10-11T00:48:23.249Z,6.40
2022-10-11T00:50:49.700Z,6.00
2022-10-11T00:53:16.001Z,5.10
2022-10-11T00:55:50.581Z,6.67
2022-10-11T00:58:18.677Z,6.20
2022-10-11T01:00:45.080Z,6.37
2022-10-11T01:03:11.406Z,5.80
2022-10-11T01:05:39.593Z,6.20
2022-10-11T01:08:08.105Z,5.90
2022-10-11T01:10:35.090Z,6.47
2022-10-11T01:13:16.539Z,6.07
2022-10-11T01:15:55.077Z,6.20
2022-10-11T01:18:30.929Z,5.60
2022-10-11T01:21:05.132Z,6.33
2022-10-11T01:23:40.423Z,6.00
2022-10-11T01:26:51.084Z,6.00
2022-10-11T01:29:32.548Z,6.00
2022-10-11T01:32:07.463Z,5.87
2022-10-11T01:34:52.457Z,6.03
2022-10-11T01:37:36.923Z,6.10
2022-10-11T01:40:32.415Z,6.23
2022-10-11T01:43:00.548Z,6.33
2022-10-11T01:45:27.224Z,6.77
2022-10-11T01:48:09.892Z,6.00
2022-10-11T01:50:47.543Z,7.00
2022-10-11T01:53:47.159Z,7.10
2022-10-11T01:56:31.676Z,7.33
2022-10-11T01:59:16.462Z,7.13
2022-10-11T02:01:45.738Z,7.70
2022-10-11T02:04:22.318Z,8.00
2022-10-11T02:07:10.781Z,8.00
2022-10-11T02:09:56.578Z,6.67
2022-10-11T02:12:32.750Z,6.83
2022-10-11T02:15:02.742Z,7.23
2022-10-11T02:17:37.126Z,7.57
2022-10-11T02:20:09.429Z,7.30
2022-10-11T02:22:38.618Z,6.50
2022-10-11T02:25:10.533Z,7.00
2022-10-11T02:27:39.438Z,8.20
2022-10-11T02:30:09.371Z,6.77
2022-10-11T02:32:39.908Z,6.80
2022-10-11T02:35:07.044Z,6.87
2022-10-11T02:37:43.457Z,6.93
2022-10-11T02:40:21.655Z,6.90
2022-10-11T02:42:58.682Z,6.73
2022-10-11T02:45:56.060Z,7.40
2022-10-11T02:48:25.015Z,6.10
2022-10-11T02:50:53.192Z,6.90
2022-10-11T02:53:21.043Z,7.50
2022-10-11T02:55:49.832Z,7.80
2022-10-11T02:58:16.151Z,6.60
2022-10-11T03:00:42.687Z,6.80
2022-10-11T03:03:09.022Z,6.30
2022-10-11T03:05:41.396Z,7.23
2022-10-11T03:08:08.445Z,7.23
2022-10-11T03:10:35.429Z,8.40
2022-10-11T03:13:02.362Z,7.70
2022-10-11T03:15:29.160Z,8.53
2022-10-11T03:17:55.973Z,8.17
2022-10-11T03:20:22.578Z,7.50
2022-10-11T03:22:48.900Z,7.40
2022-10-11T03:25:15.301Z,6.90
2022-10-11T03:27:41.589Z,8.00
2022-10-11T03:30:14.191Z,8.10
2022-10-11T03:32:45.500Z,7.07
2022-10-11T03:35:11.849Z,8.37
2022-10-11T03:37:38.245Z,8.40
2022-10-11T03:40:06.426Z,8.90
2022-10-11T03:42:32.716Z,9.13
2022-10-11T03:45:01.508Z,8.27
2022-10-11T03:47:27.793Z,8.73
2022-10-11T03:49:54.097Z,8.80
2022-10-11T03:52:20.434Z,8.97
2022-10-11T03:54:46.769Z,8.60
2022-10-11T03:57:13.261Z,8.17
2022-10-11T03:59:39.747Z,8.03
2022-10-11T04:02:06.326Z,8.87
2022-10-11T04:04:32.857Z,9.30
2022-10-11T04:06:59.199Z,11.10
2022-10-11T04:09:25.470Z,10.80
2022-10-11T04:11:51.792Z,9.13
2022-10-11T04:14:18.135Z,8.93
2022-10-11T04:16:44.430Z,10.20
2022-10-11T04:19:10.708Z,10.40
2022-10-11T04:21:36.984Z,10.50
2022-10-11T04:24:03.519Z,9.50
2022-10-11T04:26:29.952Z,10.97
2022-10-11T04:28:56.309Z,10.40
2022-10-11T04:31:23.448Z,9.93
2022-10-11T04:33:50.176Z,10.73
2022-10-11T04:36:16.470Z,11.40
2022-10-11T04:38:42.805Z,10.40
2022-10-11T04:41:12.272Z,10.63
2022-10-11T04:43:39.018Z,10.80
2022-10-11T04:46:06.331Z,10.37
2022-10-11T04:48:32.902Z,9.30
2022-10-11T04:50:59.275Z,10.90
2022-10-11T04:53:25.641Z,11.47
2022-10-11T04:56:14.989Z,10.80
2022-10-11T04:58:41.555Z,8.60
2022-10-11T05:01:08.944Z,11.63
2022-10-11T05:03:35.604Z,10.50
2022-10-11T05:06:05.578Z,10.00
2022-10-11T05:08:32.761Z,10.10
2022-10-11T05:11:05.767Z,10.50
2022-10-11T05:13:34.038Z,10.43
2022-10-11T05:16:00.377Z,9.83
2022-10-11T05:18:27.339Z,11.20
2022-10-11T05:21:05.842Z,12.00
2022-10-11T05:23:33.981Z,10.17
2022-10-11T05:26:01.670Z,10.13
2022-10-11T05:28:28.206Z,9.97
2022-10-11T05:30:55.018Z,9.67
2022-10-11T05:33:21.462Z,11.53
2022-10-11T05:35:47.963Z,9.90
2022-10-11T05:38:14.335Z,10.80
2022-10-11T05:40:40.666Z,10.00
2022-10-11T05:43:07.343Z,8.43
2022-10-11T05:45:38.731Z,9.40
2022-10-11T05:48:05.896Z,11.43
2022-10-11T05:50:32.767Z,11.40
2022-10-11T05:52:59.242Z,12.50
2022-10-11T05:55:25.736Z,12.43
2022-10-11T05:57:56.419Z,11.90
2022-10-11T06:00:25.090Z,11.23
2022-10-11T06:02:52.349Z,14.20
2022-10-11T06:05:18.654Z,14.00
2022-10-11T06:07:44.947Z,14.87
2022-10-11T06:10:11.852Z,15.17
2022-10-11T06:12:38.678Z,13.93
2022-10-11T06:15:06.276Z,15.40
2022-10-11T06:17:32.646Z,14.43
2022-10-11T06:19:58.929Z,15.27
2022-10-11T06:22:26.548Z,15.00
2022-10-11T06:24:52.847Z,14.83
2022-10-11T06:27:19.340Z,15.60
2022-10-11T06:29:45.662Z,17.53
2022-10-11T06:32:13.245Z,17.80
2022-10-11T06:34:39.542Z,16.70
2022-10-11T06:37:05.858Z,17.10
2022-10-11T06:39:32.254Z,15.60
2022-10-11T06:41:58.548Z,17.40
2022-10-11T06:44:26.204Z,17.93
2022-10-11T06:46:52.502Z,18.00
2022-10-11T06:49:23.155Z,17.83
2022-10-11T06:51:50.299Z,19.10
2022-10-11T06:54:16.636Z,19.70
2022-10-11T06:56:44.595Z,18.97
2022-10-11T06:59:12.022Z,19.43
2022-10-11T07:01:38.383Z,20.27
2022-10-11T07:04:04.956Z,20.70
2022-10-11T07:06:32.094Z,20.40
2022-10-11T07:09:00.390Z,21.00
2022-10-11T07:11:28.091Z,20.93
2022-10-11T07:13:57.024Z,18.67
2022-10-11T07:16:24.387Z,21.33
2022-10-11T07:19:00.695Z,19.93
2022-10-11T07:21:29.367Z,19.30
2022-10-11T07:23:55.697Z,19.63
2022-10-11T07:26:22.062Z,19.47
2022-10-11T07:28:48.517Z,20.23
2022-10-11T07:31:17.939Z,19.40
2022-10-11T07:33:44.523Z,19.10
2022-10-11T07:36:11.773Z,19.07
2022-10-11T07:38:43.560Z,19.40
2022-10-11T07:41:10.329Z,17.97
2022-10-11T07:43:37.890Z,18.77
2022-10-11T07:46:05.650Z,19.50
2022-10-11T07:48:34.390Z,18.03
2022-10-11T07:51:10.101Z,19.10
2022-10-11T07:53:47.361Z,18.43
2022-10-11T07:56:16.288Z,18.47
2022-10-11T07:58:43.433Z,19.57
2022-10-11T08:01:11.166Z,19.40
2022-10-11T08:03:38.231Z,17.37
2022-10-11T08:06:08.566Z,16.47
2022-10-11T08:08:36.533Z,17.00
2022-10-11T08:11:03.659Z,14.77
2022-10-11T08:13:29.976Z,14.53
2022-10-11T08:15:57.001Z,13.80
2022-10-11T08:18:24.272Z,14.93
2022-10-11T08:20:50.767Z,14.10
2022-10-11T08:23:18.481Z,13.87
2022-10-11T08:25:46.926Z,11.00
2022-10-11T08:28:17.931Z,11.40
2022-10-11T08:30:49.857Z,12.33
2022-10-11T08:33:17.876Z,10.90
2022-10-11T08:35:44.633Z,11.30
2022-10-11T08:38:11.378Z,10.93
2022-10-11T08:40:38.193Z,10.00
2022-10-11T08:43:08.276Z,9.87
2022-10-11T08:45:46.067Z,10.63
2022-10-11T08:48:19.868Z,11.27
2022-10-11T08:50:49.871Z,10.97
2022-10-11T08:53:27.268Z,8.80
2022-10-11T08:55:54.777Z,9.97
2022-10-11T08:58:33.062Z,9.50
2022-10-11T09:01:01.015Z,9.50
2022-10-11T09:03:40.464Z,9.40
2022-10-11T09:06:07.400Z,8.90
2022-10-11T09:09:15.420Z,9.17
2022-10-11T09:12:02.928Z,8.63
2022-10-11T09:14:34.996Z,8.67
2022-10-11T09:17:39.770Z,8.00
2022-10-11T09:20:23.969Z,7.77
2022-10-11T09:23:01.963Z,7.90
2022-10-11T09:25:49.410Z,7.40
2022-10-11T09:28:44.421Z,7.70
2022-10-11T09:31:11.584Z,9.05
2022-10-11T09:33:44.048Z,8.80
2022-10-11T09:36:25.699Z,7.40
2022-10-11T09:39:29.654Z,6.83
2022-10-11T09:42:03.387Z,6.80
2022-10-11T09:44:36.955Z,8.47
2022-10-11T09:47:04.443Z,8.60
2022-10-11T09:49:44.728Z,9.20
2022-10-11T09:52:15.806Z,8.43
2022-10-11T09:54:48.527Z,7.43
2022-10-11T09:57:36.847Z,7.93
2022-10-11T10:00:11.902Z,8.77
2022-10-11T10:02:48.780Z,9.53
2022-10-11T10:05:36.703Z,8.83
2022-10-11T10:08:22.777Z,8.37
2022-10-11T10:10:59.641Z,8.50
2022-10-11T10:13:47.765Z,7.73
2022-10-11T10:16:25.072Z,8.23
2022-10-11T10:18:59.140Z,8.17
2022-10-11T10:21:33.896Z,8.33
2022-10-11T10:24:05.131Z,8.90
2022-10-11T10:26:33.280Z,8.37
2022-10-11T10:29:20.003Z,7.13
2022-10-11T10:32:12.979Z,7.17
2022-10-11T10:34:38.409Z,8.00
2022-10-11T10:37:25.194Z,7.77
2022-10-11T10:40:06.346Z,7.87
2022-10-11T10:42:32.962Z,7.60
2022-10-11T10:44:59.900Z,6.83
2022-10-11T10:47:45.984Z,8.00
2022-10-11T10:50:30.950Z,8.30
2022-10-11T10:53:23.068Z,7.67
2022-10-11T10:56:00.996Z,7.67
2022-10-11T10:58:52.367Z,7.33
2022-10-11T11:01:30.458Z,7.20
2022-10-11T11:04:15.882Z,6.80
2022-10-11T11:06:55.355Z,7.57
2022-10-11T11:09:49.709Z,7.80
2022-10-11T11:12:28.244Z,7.10
2022-10-11T11:15:11.446Z,6.90
2022-10-11T11:17:58.032Z,7.20
2022-10-11T11:20:40.172Z,7.93
2022-10-11T11:23:20.571Z,6.70
2022-10-11T11:25:53.895Z,7.23
2022-10-11T11:28:57.910Z,7.97
2022-10-11T11:31:57.347Z,6.33
2022-10-11T11:34:33.140Z,6.27
2022-10-11T11:37:04.168Z,7.77
2022-10-11T11:40:14.025Z,6.90
2022-10-11T11:42:51.301Z,6.20
2022-10-11T11:45:41.613Z,6.33
2022-10-11T11:48:19.704Z,5.27
2022-10-11T11:51:03.665Z,5.50
2022-10-11T11:53:46.542Z,5.60
2022-10-11T11:56:33.065Z,5.23
2022-10-11T11:59:19.658Z,5.70
2022-10-11T12:01:56.666Z,4.40
2022-10-11T12:04:35.970Z,5.40
2022-10-11T12:07:16.264Z,5.73
2022-10-11T12:09:46.383Z,4.80
2022-10-11T12:12:33.872Z,5.47
2022-10-11T12:15:09.071Z,4.73
2022-10-11T12:17:57.856Z,4.57
2022-10-11T12:20:26.975Z,4.67
2022-10-11T12:23:19.740Z,4.63
2022-10-11T12:26:06.288Z,4.53
2022-10-11T12:28:41.938Z,4.50
2022-10-11T12:31:23.648Z,5.17
2022-10-11T12:34:02.275Z,5.20
2022-10-11T12:36:32.798Z,4.90
2022-10-11T12:39:20.858Z,5.10
2022-10-11T12:41:47.087Z,4.67
2022-10-11T12:44:22.599Z,4.47
2022-10-11T12:46:54.951Z,5.03
2022-10-11T12:49:31.038Z,3.97
2022-10-11T12:52:34.572Z,4.40
2022-10-11T12:55:50.637Z,4.30
2022-10-11T12:58:27.941Z,4.43
2022-10-11T13:00:57.682Z,4.30
2022-10-11T13:03:40.818Z,4.77
2022-10-11T13:06:30.849Z,4.57
2022-10-11T13:09:14.809Z,4.63
2022-10-11T13:11:50.803Z,4.20
2022-10-11T13:14:21.394Z,4.13
2022-10-11T13:16:55.693Z,4.60
2022-10-11T13:19:22.901Z,4.30
2022-10-11T13:21:54.393Z,4.37
2022-10-11T13:24:23.036Z,4.70
2022-10-11T13:27:03.443Z,4.49
2022-10-11T13:29:36.259Z,4.70
2022-10-11T13:32:12.381Z,4.00
2022-10-11T13:34:41.557Z,3.76
2022-10-11T13:37:15.103Z,4.97
2022-10-11T13:39:41.723Z,4.67
2022-10-11T13:42:13.320Z,5.07
2022-10-11T13:44:41.236Z,5.93
2022-10-11T13:47:12.922Z,4.30
2022-10-11T13:49:40.083Z,4.93
2022-10-11T13:52:19.781Z,4.97
2022-10-11T13:55:04.056Z,4.20
2022-10-11T13:57:43.422Z,4.60
2022-10-11T14:00:34.827Z,3.50
2022-10-11T14:03:06.658Z,4.27
2022-10-11T14:05:35.650Z,4.67
2022-10-11T14:08:06.244Z,4.80
2022-10-11T14:10:33.320Z,4.60
2022-10-11T14:13:25.335Z,4.63
2022-10-11T14:16:18.845Z,3.90
2022-10-11T14:18:48.554Z,4.03
2022-10-11T14:21:39.882Z,4.80
2022-10-11T14:24:10.413Z,4.20
2022-10-11T14:26:40.637Z,4.47
2022-10-11T14:29:12.228Z,4.80
2022-10-11T14:31:42.012Z,5.60
2022-10-11T14:34:16.658Z,4.27
2022-10-11T14:36:42.991Z,4.60
2022-10-11T14:39:18.559Z,3.90
2022-10-11T14:41:45.692Z,4.20
2022-10-11T14:44:12.945Z,5.23
2022-10-11T14:46:40.809Z,5.33
2022-10-11T14:49:21.902Z,4.40
2022-10-11T14:51:49.962Z,5.30
2022-10-11T14:54:18.889Z,5.53
2022-10-11T14:56:46.177Z,4.80
2022-10-11T14:59:18.664Z,4.40
2022-10-11T15:01:46.865Z,5.30
2022-10-11T15:04:13.320Z,4.57
2022-10-11T15:06:41.135Z,4.77
2022-10-11T15:09:08.102Z,5.00
2022-10-11T15:11:36.872Z,5.23
2022-10-11T15:14:03.840Z,5.20
2022-10-11T15:16:30.447Z,5.60
2022-10-11T15:18:56.798Z,5.63
2022-10-11T15:21:25.879Z,5.43
2022-10-11T15:23:53.808Z,5.60
2022-10-11T15:26:29.367Z,5.87
2022-10-11T15:28:57.005Z,6.20
2022-10-11T15:31:23.810Z,5.53
2022-10-11T15:33:50.425Z,5.40
2022-10-11T15:36:19.632Z,6.00
2022-10-11T15:38:47.467Z,5.50
2022-10-11T15:41:17.454Z,6.10
2022-10-11T15:43:45.207Z,6.17
2022-10-11T15:46:15.767Z,5.70
2022-10-11T15:48:42.060Z,6.30
2022-10-11T15:51:08.468Z,5.17
2022-10-11T15:53:35.191Z,5.50
2022-10-11T15:56:04.988Z,5.20
2022-10-11T15:58:34.464Z,7.00
2022-10-11T16:01:05.931Z,6.37
2022-10-11T16:03:33.219Z,6.07
2022-10-11T16:06:04.929Z,5.60
2022-10-11T16:08:32.922Z,6.13
2022-10-11T16:10:59.348Z,5.13
2022-10-11T16:13:25.642Z,5.47
2022-10-11T16:15:52.109Z,6.60
2022-10-11T16:18:21.009Z,8.40
2022-10-11T16:20:50.919Z,6.63
2022-10-11T16:23:17.586Z,6.27
2022-10-11T16:25:46.221Z,6.10
2022-10-11T16:28:12.532Z,6.90
2022-10-11T16:30:45.280Z,5.87
2022-10-11T16:33:11.591Z,6.37
2022-10-11T16:35:41.489Z,6.60
2022-10-11T16:38:08.227Z,5.37
2022-10-11T16:40:35.963Z,6.10
2022-10-11T16:43:07.368Z,5.77
2022-10-11T16:45:34.925Z,5.53
2022-10-11T16:48:01.337Z,7.37
2022-10-11T16:50:28.908Z,5.57
2022-10-11T16:52:55.386Z,6.70
2022-10-11T16:55:22.487Z,6.03
2022-10-11T16:57:48.824Z,6.40
2022-10-11T17:00:15.853Z,6.40
2022-10-11T17:02:42.163Z,6.13
2022-10-11T17:05:08.527Z,6.10
2022-10-11T17:07:35.139Z,7.13
2022-10-11T17:10:01.602Z,7.17
2022-10-11T17:12:28.603Z,5.83
2022-10-11T17:14:55.268Z,6.63
2022-10-11T17:17:21.826Z,7.53
2022-10-11T17:19:48.200Z,5.87
2022-10-11T17:22:18.306Z,6.87
2022-10-11T17:24:45.097Z,5.90
2022-10-11T17:27:11.853Z,6.33
2022-10-11T17:29:38.348Z,6.37
2022-10-11T17:32:04.837Z,6.50
2022-10-11T17:34:31.231Z,6.43
2022-10-11T17:36:57.564Z,6.40
2022-10-11T17:39:23.998Z,5.70
2022-10-11T17:41:51.051Z,6.03
2022-10-11T17:44:18.342Z,5.83
2022-10-11T17:46:45.125Z,5.53
2022-10-11T17:49:11.823Z,5.83
2022-10-11T17:51:38.984Z,7.60
2022-10-11T17:54:06.125Z,6.07
2022-10-11T17:56:37.668Z,6.03
2022-10-11T17:59:04.408Z,6.13
2022-10-11T18:01:30.821Z,5.53
2022-10-11T18:04:00.320Z,5.50
2022-10-11T18:06:29.200Z,5.63
2022-10-11T18:08:57.218Z,5.87
2022-10-11T18:11:23.933Z,6.40
2022-10-11T18:13:53.102Z,6.03
2022-10-11T18:16:21.783Z,6.80
2022-10-11T18:18:48.501Z,8.03
2022-10-11T18:21:16.053Z,7.43
2022-10-11T18:23:42.499Z,6.93
2022-10-11T18:26:10.494Z,8.60
2022-10-11T18:28:37.022Z,7.10
2022-10-11T18:31:13.209Z,6.67
2022-10-11T18:33:40.930Z,8.10
2022-10-11T18:36:09.166Z,6.60
2022-10-11T18:38:35.791Z,6.23
2022-10-11T18:41:07.458Z,6.60
2022-10-11T18:43:35.037Z,7.00
2022-10-11T18:46:13.973Z,7.00
2022-10-11T18:48:41.998Z,7.87
2022-10-11T18:51:14.860Z,6.83
2022-10-11T18:53:41.994Z,6.43
2022-10-11T18:56:10.358Z,7.43
2022-10-11T18:58:38.181Z,8.10
2022-10-11T19:01:10.255Z,7.40
2022-10-11T19:03:37.128Z,6.97
2022-10-11T19:06:09.523Z,7.17
2022-10-11T19:08:36.023Z,7.37
2022-10-11T19:11:10.430Z,6.77
2022-10-11T19:13:36.853Z,6.20
2022-10-11T19:16:08.763Z,6.20
2022-10-11T19:18:38.344Z,8.60
2022-10-11T19:21:12.353Z,8.23
2022-10-11T19:23:41.027Z,7.93
2022-10-11T19:26:19.550Z,7.63
2022-10-11T19:28:46.827Z,7.87
2022-10-11T19:31:16.915Z,7.47
2022-10-11T19:33:45.321Z,7.43
2022-10-11T19:36:13.898Z,7.23
2022-10-11T19:38:43.965Z,7.20
2022-10-11T19:41:10.788Z,7.57
2022-10-11T19:43:37.068Z,7.80
2022-10-11T19:46:09.432Z,8.30
2022-10-11T19:48:37.997Z,8.30
2022-10-11T19:51:24.580Z,8.50
2022-10-11T19:54:04.594Z,8.60
2022-10-11T19:56:33.287Z,7.97
2022-10-11T19:59:00.725Z,7.97
2022-10-11T20:01:31.426Z,8.83
2022-10-11T20:04:02.129Z,9.33
2022-10-11T20:06:29.008Z,7.97
2022-10-11T20:09:16.608Z,9.30
2022-10-11T20:11:41.928Z,9.40
2022-10-11T20:14:08.678Z,9.27
2022-10-11T20:16:35.529Z,10.43
2022-10-11T20:19:02.048Z,9.77
2022-10-11T20:21:29.687Z,11.20
2022-10-11T20:24:01.850Z,9.90
2022-10-11T20:26:30.050Z,9.00
2022-10-11T20:28:57.415Z,10.07
2022-10-11T20:31:27.643Z,10.60
2022-10-11T20:33:56.852Z,9.93
2022-10-11T20:36:24.163Z,10.20
2022-10-11T20:38:51.585Z,10.40
2022-10-11T20:41:21.545Z,10.30
2022-10-11T20:43:49.917Z,10.57
2022-10-11T20:46:22.181Z,10.77
2022-10-11T20:48:58.901Z,10.40
2022-10-11T20:51:28.521Z,10.80
2022-10-11T20:53:54.900Z,11.57
2022-10-11T20:56:23.935Z,11.00
2022-10-11T20:58:52.600Z,10.93
2022-10-11T21:01:24.355Z,14.70
2022-10-11T21:03:50.668Z,12.57
2022-10-11T21:06:17.052Z,11.13
2022-10-11T21:08:43.798Z,11.80
2022-10-11T21:11:10.891Z,12.33
2022-10-11T21:13:37.695Z,11.93
2022-10-11T21:16:22.007Z,10.70
2022-10-11T21:18:55.994Z,11.97
2022-10-11T21:21:26.185Z,11.37
2022-10-11T21:23:57.041Z,12.43
2022-10-11T21:26:23.518Z,11.20
2022-10-11T21:28:49.910Z,11.40
2022-10-11T21:31:18.080Z,12.03
2022-10-11T21:33:44.972Z,11.93
2022-10-11T21:36:16.624Z,12.20
2022-10-11T21:38:44.556Z,11.47
2022-10-11T21:41:15.965Z,11.50
2022-10-11T21:43:42.510Z,12.53
2022-10-11T21:46:13.860Z,12.53
2022-10-11T21:48:40.523Z,12.30
2022-10-11T21:51:07.287Z,12.60
2022-10-11T21:53:33.760Z,12.07
2022-10-11T21:56:03.269Z,13.53
2022-10-11T21:58:29.681Z,14.80
2022-10-11T22:00:55.994Z,14.27
2022-10-11T22:03:22.321Z,10.30
2022-10-11T22:05:48.676Z,14.10
2022-10-11T22:08:15.361Z,15.40
2022-10-11T22:10:51.932Z,15.13
2022-10-11T22:13:18.229Z,15.00
2022-10-11T22:15:44.529Z,13.40
2022-10-11T22:18:10.915Z,14.63
2022-10-11T22:20:37.204Z,15.80
2022-10-11T22:23:03.762Z,13.50
2022-10-11T22:25:30.627Z,15.30
2022-10-11T22:27:56.920Z,14.20
2022-10-11T22:30:23.219Z,14.03
2022-10-11T22:32:51.057Z,12.70
2022-10-11T22:35:17.336Z,13.67
2022-10-11T22:37:44.058Z,13.30
2022-10-11T22:40:10.520Z,14.07
2022-10-11T22:42:36.893Z,14.10
2022-10-11T22:45:03.875Z,14.37
2022-10-11T22:47:30.192Z,13.93
2022-10-11T22:49:56.471Z,14.10
2022-10-11T22:52:22.790Z,15.03
2022-10-11T22:54:49.066Z,14.93
2022-10-11T22:57:15.387Z,14.77
2022-10-11T22:59:41.713Z,14.90
2022-10-11T23:02:08.260Z,14.87
2022-10-11T23:04:34.558Z,14.97
2022-10-11T23:07:04.807Z,15.33
2022-10-11T23:09:31.619Z,14.97
2022-10-11T23:11:59.422Z,15.80
2022-10-11T23:14:25.754Z,15.90
2022-10-11T23:16:52.386Z,15.03
2022-10-11T23:19:18.993Z,15.30
2022-10-11T23:21:45.309Z,16.93
2022-10-11T23:24:11.658Z,16.13
2022-10-11T23:26:38.029Z,15.60
2022-10-11T23:29:04.341Z,14.97
2022-10-11T23:31:30.714Z,15.37
2022-10-11T23:33:57.487Z,14.20
2022-10-11T23:36:25.682Z,16.00
2022-10-11T23:38:57.259Z,16.40
2022-10-11T23:41:28.056Z,17.33
2022-10-11T23:43:54.606Z,17.10
2022-10-11T23:46:21.404Z,16.97
2022-10-11T23:48:48.239Z,14.30
2022-10-11T23:51:14.604Z,15.50
2022-10-11T23:53:40.892Z,15.57
2022-10-11T23:56:07.728Z,16.37
2022-10-11T23:58:34.155Z,15.50
